Time;durP1;ratioP1;P1;durP2;ratioP2;P2;SDS_P1;SDS_P2;PMS_P1;PMS_P2;Temp;Humidity;BMP_temperature;BMP_pressure;BME280_temperature;BME280_humidity;BME280_pressure;Samples;Min_cycle;Max_cycle;Signal;HPM_P1;HPM_P2
2024/01/03 00:02:01;;;;;;;30.80;5.40;;;;;;;;;;5086193;28;20562;-63
2024/01/03 00:04:27;;;;;;;34.78;5.35;;;;;;;;;;5085067;28;20491;-63
2024/01/03 00:06:53;;;;;;;27.63;3.80;;;;;;;;;;5096441;28;20073;-63
2024/01/03 00:09:19;;;;;;;38.28;5.22;;;;;;;;;;5084625;28;20083;-63
2024/01/03 00:11:46;;;;;;;30.52;5.05;;;;;;;;;;5096619;28;20085;-63
2024/01/03 00:14:20;;;;;;;32.60;5.18;;;;;;;;;;5098896;28;20047;-63
2024/01/03 00:16:46;;;;;;;29.90;4.90;;;;;;;;;;5099044;28;20392;-63
2024/01/03 00:19:16;;;;;;;35.95;5.22;;;;;;;;;;5087414;28;20786;-63
2024/01/03 00:21:42;;;;;;;51.72;8.32;;;;;;;;;;5097120;28;20039;-63
2024/01/03 00:24:12;;;;;;;36.53;5.22;;;;;;;;;;5091762;28;20134;-63
2024/01/03 00:26:40;;;;;;;49.30;7.00;;;;;;;;;;5088547;28;20387;-63
2024/01/03 00:29:07;;;;;;;32.17;5.80;;;;;;;;;;5085788;28;20521;-63
2024/01/03 00:31:37;;;;;;;44.65;6.35;;;;;;;;;;5118618;27;20473;-63
2024/01/03 00:34:05;;;;;;;34.13;5.32;;;;;;;;;;5097396;27;20469;-63
2024/01/03 00:36:33;;;;;;;32.17;5.07;;;;;;;;;;5115879;27;20055;-64
2024/01/03 00:38:59;;;;;;;28.10;4.75;;;;;;;;;;5117514;27;20422;-63
2024/01/03 00:41:25;;;;;;;48.03;5.75;;;;;;;;;;5117324;27;20139;-63
2024/01/03 00:43:51;;;;;;;40.70;6.15;;;;;;;;;;5118846;27;20570;-63
2024/01/03 00:46:18;;;;;;;35.65;5.13;;;;;;;;;;5097899;27;20043;-63
2024/01/03 00:48:44;;;;;;;74.40;8.35;;;;;;;;;;5100579;27;20493;-63
2024/01/03 00:51:10;;;;;;;28.65;4.57;;;;;;;;;;5096283;28;20131;-63
2024/01/03 00:53:36;;;;;;;39.03;6.85;;;;;;;;;;5114678;27;20039;-64
2024/01/03 00:56:03;;;;;;;37.65;5.97;;;;;;;;;;5115617;27;20446;-63
2024/01/03 00:58:29;;;;;;;35.35;4.95;;;;;;;;;;5115063;28;20031;-63
2024/01/03 01:00:55;;;;;;;32.70;5.40;;;;;;;;;;5109878;28;20103;-63
2024/01/03 01:03:22;;;;;;;104.43;10.73;;;;;;;;;;5104129;27;20286;-63
2024/01/03 01:05:48;;;;;;;35.40;5.80;;;;;;;;;;5100500;28;20062;-63
2024/01/03 01:08:14;;;;;;;38.17;5.97;;;;;;;;;;5099245;27;20042;-63
2024/01/03 01:10:40;;;;;;;39.13;5.90;;;;;;;;;;5089981;28;20097;-63
2024/01/03 01:13:06;;;;;;;47.30;5.68;;;;;;;;;;5094621;28;20056;-63
2024/01/03 01:15:32;;;;;;;39.78;6.30;;;;;;;;;;5097256;28;20545;-63
2024/01/03 01:17:59;;;;;;;33.88;6.95;;;;;;;;;;5096646;28;20050;-64
2024/01/03 01:20:25;;;;;;;32.67;5.05;;;;;;;;;;5092644;28;20036;-63
2024/01/03 01:22:51;;;;;;;39.05;5.45;;;;;;;;;;5097546;28;20556;-63
2024/01/03 01:25:17;;;;;;;44.13;5.05;;;;;;;;;;5094364;28;20053;-63
2024/01/03 01:27:43;;;;;;;42.78;5.43;;;;;;;;;;5093794;28;20047;-63
2024/01/03 01:30:10;;;;;;;33.15;5.03;;;;;;;;;;5098618;28;20175;-63
2024/01/03 01:32:36;;;;;;;47.15;7.38;;;;;;;;;;5095598;28;20052;-63
2024/01/03 01:35:02;;;;;;;35.15;5.10;;;;;;;;;;5095360;28;20035;-64
2024/01/03 01:37:28;;;;;;;52.25;7.30;;;;;;;;;;5098275;27;20043;-63
2024/01/03 01:39:55;;;;;;;24.20;4.38;;;;;;;;;;5102142;27;20110;-63
2024/01/03 01:42:22;;;;;;;32.13;5.38;;;;;;;;;;5119690;27;20055;-63
2024/01/03 01:44:49;;;;;;;35.45;6.30;;;;;;;;;;5100465;27;20398;-63
2024/01/03 01:47:15;;;;;;;38.67;4.32;;;;;;;;;;5122534;27;20096;-63
2024/01/03 01:49:41;;;;;;;30.45;5.40;;;;;;;;;;5121224;27;20058;-63
2024/01/03 01:52:09;;;;;;;36.42;4.53;;;;;;;;;;5124314;27;20504;-63
2024/01/03 01:54:35;;;;;;;30.20;4.60;;;;;;;;;;5119848;27;20478;-63
2024/01/03 01:57:02;;;;;;;24.35;3.63;;;;;;;;;;5102655;27;20075;-63
2024/01/03 01:59:28;;;;;;;22.35;3.80;;;;;;;;;;5106693;27;20855;-63
2024/01/03 02:01:55;;;;;;;29.02;5.60;;;;;;;;;;5117667;27;20741;-63
2024/01/03 02:04:21;;;;;;;22.45;4.57;;;;;;;;;;5102065;27;20039;-63
2024/01/03 02:06:47;;;;;;;26.15;6.18;;;;;;;;;;5084006;27;20542;-63
2024/01/03 02:09:14;;;;;;;29.27;3.67;;;;;;;;;;5082065;27;20540;-63
2024/01/03 02:11:45;;;;;;;25.52;4.35;;;;;;;;;;5105371;27;20070;-63
2024/01/03 02:14:11;;;;;;;30.73;4.90;;;;;;;;;;5101710;27;20051;-63
2024/01/03 02:16:37;;;;;;;25.85;2.85;;;;;;;;;;5101705;27;20457;-63
2024/01/03 02:19:04;;;;;;;25.15;3.90;;;;;;;;;;5120763;27;20055;-63
2024/01/03 02:21:31;;;;;;;24.00;3.72;;;;;;;;;;5119513;27;20044;-63
2024/01/03 02:23:57;;;;;;;15.35;2.67;;;;;;;;;;5120658;27;20036;-63
2024/01/03 02:26:23;;;;;;;23.08;3.92;;;;;;;;;;5101304;27;20486;-63
2024/01/03 02:28:49;;;;;;;24.13;3.30;;;;;;;;;;5098927;27;20044;-63
2024/01/03 02:31:16;;;;;;;21.98;3.15;;;;;;;;;;5118012;27;20061;-63
2024/01/03 02:33:42;;;;;;;23.33;3.28;;;;;;;;;;5122257;27;20411;-63
2024/01/03 02:36:08;;;;;;;19.42;3.05;;;;;;;;;;5123854;27;20121;-63
2024/01/03 02:38:34;;;;;;;22.25;3.22;;;;;;;;;;5099820;27;20491;-63
2024/01/03 02:41:01;;;;;;;25.63;2.95;;;;;;;;;;5118561;27;20050;-63
2024/01/03 02:43:27;;;;;;;23.38;5.63;;;;;;;;;;5101328;27;20043;-63
2024/01/03 02:45:53;;;;;;;18.00;3.55;;;;;;;;;;5101791;27;20051;-63
2024/01/03 02:48:19;;;;;;;21.98;3.08;;;;;;;;;;5100300;28;20118;-63
2024/01/03 02:50:48;;;;;;;22.95;3.50;;;;;;;;;;5081957;27;20041;-63
2024/01/03 02:53:15;;;;;;;21.50;3.13;;;;;;;;;;5092409;27;20066;-63
2024/01/03 02:55:41;;;;;;;18.60;3.72;;;;;;;;;;5116718;27;20048;-63
2024/01/03 02:58:08;;;;;;;24.27;3.90;;;;;;;;;;5112982;27;20051;-63
2024/01/03 03:00:36;;;;;;;23.15;4.45;;;;;;;;;;5096735;27;20043;-63
2024/01/03 03:03:02;;;;;;;15.68;3.08;;;;;;;;;;5117768;27;20351;-63
2024/01/03 03:05:28;;;;;;;19.35;3.08;;;;;;;;;;5114500;27;20562;-63
2024/01/03 03:07:55;;;;;;;17.52;2.90;;;;;;;;;;5117444;27;20039;-63
2024/01/03 03:10:21;;;;;;;13.85;2.78;;;;;;;;;;5104359;27;20058;-63
2024/01/03 03:12:47;;;;;;;13.18;3.38;;;;;;;;;;5102147;27;20047;-63
2024/01/03 03:15:13;;;;;;;20.30;3.30;;;;;;;;;;5099800;27;20043;-63
2024/01/03 03:17:41;;;;;;;13.68;2.63;;;;;;;;;;5104421;27;20180;-63
2024/01/03 03:20:07;;;;;;;22.13;2.88;;;;;;;;;;5120314;27;20466;-63
2024/01/03 03:22:33;;;;;;;15.07;2.90;;;;;;;;;;5121318;27;20765;-63
2024/01/03 03:24:59;;;;;;;18.83;3.67;;;;;;;;;;5124193;27;20122;-63
2024/01/03 03:27:25;;;;;;;23.13;3.10;;;;;;;;;;5119206;27;20272;-63
2024/01/03 03:29:52;;;;;;;25.67;3.25;;;;;;;;;;5101442;27;20054;-63
2024/01/03 03:32:18;;;;;;;17.15;2.80;;;;;;;;;;5097126;28;20115;-63
2024/01/03 03:34:44;;;;;;;26.45;5.47;;;;;;;;;;5096656;27;20063;-63
2024/01/03 03:37:11;;;;;;;20.70;2.75;;;;;;;;;;5117767;27;20379;-63
2024/01/03 03:39:37;;;;;;;12.80;2.83;;;;;;;;;;5098892;27;20039;-63
2024/01/03 03:42:03;;;;;;;14.23;2.20;;;;;;;;;;5096366;27;20061;-63
2024/01/03 03:44:29;;;;;;;17.15;3.47;;;;;;;;;;5098135;27;20090;-62
2024/01/03 03:46:55;;;;;;;11.13;3.08;;;;;;;;;;5114298;27;20059;-63
2024/01/03 03:49:21;;;;;;;16.02;2.72;;;;;;;;;;5116594;27;20050;-63
2024/01/03 03:51:48;;;;;;;19.65;2.88;;;;;;;;;;5118086;27;20415;-63
2024/01/03 03:54:14;;;;;;;16.85;2.60;;;;;;;;;;5116613;27;20122;-63
2024/01/03 03:56:40;;;;;;;12.52;2.78;;;;;;;;;;5095272;27;20440;-63
2024/01/03 03:59:07;;;;;;;16.80;2.28;;;;;;;;;;5100080;27;20132;-63
2024/01/03 04:01:33;;;;;;;15.63;2.38;;;;;;;;;;5111281;27;20117;-63
2024/01/03 04:03:59;;;;;;;21.48;2.80;;;;;;;;;;5116898;27;20127;-62
2024/01/03 04:06:26;;;;;;;15.23;2.50;;;;;;;;;;5121983;27;20170;-63
2024/01/03 04:08:52;;;;;;;23.10;3.10;;;;;;;;;;5094963;27;20035;-63
2024/01/03 04:11:18;;;;;;;17.90;2.60;;;;;;;;;;5097762;27;20050;-63
2024/01/03 04:13:44;;;;;;;8.43;1.85;;;;;;;;;;5095122;27;20047;-62
2024/01/03 04:16:11;;;;;;;15.70;2.20;;;;;;;;;;5117242;27;20043;-62
2024/01/03 04:18:38;;;;;;;15.00;2.65;;;;;;;;;;5097091;27;20050;-62
2024/01/03 04:21:07;;;;;;;17.50;2.42;;;;;;;;;;5096295;27;20047;-62
2024/01/03 04:23:34;;;;;;;16.25;3.25;;;;;;;;;;5095292;27;20470;-63
2024/01/03 04:26:01;;;;;;;13.00;2.60;;;;;;;;;;5096322;27;20123;-62
2024/01/03 04:28:27;;;;;;;15.30;2.75;;;;;;;;;;5114490;27;20077;-63
2024/01/03 04:30:53;;;;;;;13.20;2.30;;;;;;;;;;5096608;27;20134;-63
2024/01/03 04:33:19;;;;;;;9.30;1.88;;;;;;;;;;5118483;27;20051;-61
2024/01/03 04:35:46;;;;;;;16.77;2.90;;;;;;;;;;5098269;27;20039;-61
2024/01/03 04:38:12;;;;;;;13.43;2.17;;;;;;;;;;5098049;28;20046;-63
2024/01/03 04:40:38;;;;;;;12.93;2.45;;;;;;;;;;5083945;27;20039;-63
2024/01/03 04:43:04;;;;;;;13.40;2.40;;;;;;;;;;5102060;27;20137;-63
2024/01/03 04:45:30;;;;;;;16.60;3.60;;;;;;;;;;5101171;27;20053;-63
2024/01/03 04:47:56;;;;;;;14.05;2.60;;;;;;;;;;5100002;28;20744;-63
2024/01/03 04:50:23;;;;;;;16.80;3.08;;;;;;;;;;5119874;27;20042;-63
2024/01/03 04:52:49;;;;;;;17.10;2.83;;;;;;;;;;5118540;27;20047;-62
2024/01/03 04:55:15;;;;;;;14.00;2.65;;;;;;;;;;5100308;28;20035;-62
2024/01/03 04:57:41;;;;;;;19.58;2.97;;;;;;;;;;5098949;28;20142;-62
2024/01/03 05:00:08;;;;;;;16.08;2.45;;;;;;;;;;5101652;28;20051;-63
2024/01/03 05:02:35;;;;;;;15.13;2.72;;;;;;;;;;5101837;28;20039;-63
2024/01/03 05:05:02;;;;;;;19.23;3.40;;;;;;;;;;5098925;28;20040;-62
2024/01/03 05:07:29;;;;;;;17.17;2.47;;;;;;;;;;5100265;28;20047;-62
2024/01/03 05:09:56;;;;;;;15.68;1.83;;;;;;;;;;5099373;28;20099;-62
2024/01/03 05:12:22;;;;;;;8.18;1.60;;;;;;;;;;5123506;27;20043;-63
2024/01/03 05:14:48;;;;;;;13.32;2.10;;;;;;;;;;5123082;27;20486;-62
2024/01/03 05:17:14;;;;;;;8.57;2.20;;;;;;;;;;5104246;27;20092;-62
2024/01/03 05:19:43;;;;;;;16.60;2.42;;;;;;;;;;5106958;27;20062;-62
2024/01/03 05:22:09;;;;;;;17.88;2.45;;;;;;;;;;5105799;27;20039;-62
2024/01/03 05:24:35;;;;;;;19.75;2.15;;;;;;;;;;5119680;27;20398;-63
2024/01/03 05:27:01;;;;;;;18.90;2.38;;;;;;;;;;5125664;27;20432;-62
2024/01/03 05:29:28;;;;;;;11.98;2.13;;;;;;;;;;5121562;27;20063;-63
2024/01/03 05:31:54;;;;;;;10.98;1.83;;;;;;;;;;5103698;28;20151;-62
2024/01/03 05:34:20;;;;;;;10.40;2.67;;;;;;;;;;5119362;27;20078;-62
2024/01/03 05:36:46;;;;;;;9.00;2.15;;;;;;;;;;5101701;27;20058;-62
2024/01/03 05:39:13;;;;;;;14.05;3.17;;;;;;;;;;5104704;27;20040;-62
2024/01/03 05:41:39;;;;;;;17.05;3.50;;;;;;;;;;5101293;27;20063;-62
2024/01/03 05:44:06;;;;;;;18.00;3.40;;;;;;;;;;5107991;27;20497;-62
2024/01/03 05:46:32;;;;;;;26.23;3.40;;;;;;;;;;5108088;27;20039;-63
2024/01/03 05:48:59;;;;;;;24.35;4.10;;;;;;;;;;5105226;27;20502;-62
2024/01/03 05:51:25;;;;;;;40.63;6.30;;;;;;;;;;5104432;27;20107;-62
2024/01/03 05:53:51;;;;;;;39.15;6.30;;;;;;;;;;5125683;27;20050;-62
2024/01/03 05:56:17;;;;;;;33.58;5.93;;;;;;;;;;5105653;27;20110;-62
2024/01/03 05:58:44;;;;;;;37.70;6.32;;;;;;;;;;5122003;27;20032;-63
2024/01/03 06:01:10;;;;;;;44.03;6.93;;;;;;;;;;5088864;27;20071;-62
2024/01/03 06:03:36;;;;;;;36.30;5.82;;;;;;;;;;5104948;27;20046;-62
2024/01/03 06:06:03;;;;;;;44.20;6.55;;;;;;;;;;5124434;27;20039;-62
2024/01/03 06:08:29;;;;;;;38.08;5.30;;;;;;;;;;5109793;27;20087;-62
2024/01/03 06:10:55;;;;;;;33.47;6.45;;;;;;;;;;5109325;27;20066;-62
2024/01/03 06:13:22;;;;;;;35.40;5.68;;;;;;;;;;5129109;27;20043;-62
2024/01/03 06:15:48;;;;;;;29.13;5.60;;;;;;;;;;5107150;27;20066;-62
2024/01/03 06:18:15;;;;;;;41.50;6.40;;;;;;;;;;5125327;27;20050;-62
2024/01/03 06:20:41;;;;;;;25.98;5.05;;;;;;;;;;5104877;27;20114;-63
2024/01/03 06:23:07;;;;;;;31.30;5.80;;;;;;;;;;5122812;27;20115;-62
2024/01/03 06:25:34;;;;;;;36.60;6.95;;;;;;;;;;5109226;28;20097;-62
2024/01/03 06:28:00;;;;;;;29.17;5.95;;;;;;;;;;5109149;27;20035;-62
2024/01/03 06:30:26;;;;;;;35.30;4.97;;;;;;;;;;5102479;27;20173;-62
2024/01/03 06:32:52;;;;;;;33.90;4.22;;;;;;;;;;5106511;27;20107;-62
2024/01/03 06:35:20;;;;;;;34.67;5.30;;;;;;;;;;5121995;27;20470;-62
2024/01/03 06:37:46;;;;;;;31.23;4.85;;;;;;;;;;5125322;27;20551;-62
2024/01/03 06:40:12;;;;;;;33.80;5.10;;;;;;;;;;5120829;27;20039;-63
2024/01/03 06:42:38;;;;;;;27.00;5.53;;;;;;;;;;5126068;27;20395;-62
2024/01/03 06:45:05;;;;;;;35.92;5.38;;;;;;;;;;5104876;27;20043;-62
2024/01/03 06:47:31;;;;;;;28.75;4.57;;;;;;;;;;5121003;27;20039;-62
2024/01/03 06:49:58;;;;;;;26.25;4.47;;;;;;;;;;5122574;27;20045;-63
2024/01/03 06:52:24;;;;;;;30.10;4.28;;;;;;;;;;5102168;27;20471;-63
2024/01/03 06:54:50;;;;;;;28.85;4.03;;;;;;;;;;5106091;27;20134;-63
2024/01/03 06:57:16;;;;;;;34.22;7.22;;;;;;;;;;5124543;27;20073;-63
2024/01/03 06:59:43;;;;;;;37.13;6.95;;;;;;;;;;5123085;27;20035;-63
2024/01/03 07:02:09;;;;;;;33.83;5.28;;;;;;;;;;5104587;27;20552;-63
2024/01/03 07:04:35;;;;;;;41.65;6.03;;;;;;;;;;5126677;27;20043;-63
2024/01/03 07:07:01;;;;;;;33.90;5.82;;;;;;;;;;5107425;27;20116;-63
2024/01/03 07:09:27;;;;;;;32.00;5.25;;;;;;;;;;5125032;27;20040;-63
2024/01/03 07:11:54;;;;;;;32.78;4.97;;;;;;;;;;5104254;27;20050;-63
2024/01/03 07:14:20;;;;;;;33.30;5.47;;;;;;;;;;5102165;27;20039;-63
2024/01/03 07:16:46;;;;;;;39.42;6.97;;;;;;;;;;5105883;27;20122;-63
2024/01/03 07:19:13;;;;;;;45.67;6.32;;;;;;;;;;5117676;27;20099;-63
2024/01/03 07:21:39;;;;;;;38.85;5.82;;;;;;;;;;5120268;27;20071;-63
2024/01/03 07:24:06;;;;;;;36.65;5.18;;;;;;;;;;5100443;28;20398;-63
2024/01/03 07:26:32;;;;;;;30.38;4.78;;;;;;;;;;5097157;27;20044;-63
2024/01/03 07:28:58;;;;;;;29.75;6.38;;;;;;;;;;5119354;27;20443;-63
2024/01/03 07:31:25;;;;;;;26.33;5.35;;;;;;;;;;5083681;27;20047;-62
2024/01/03 07:33:51;;;;;;;27.45;4.78;;;;;;;;;;5117034;27;21984;-63
2024/01/03 07:36:17;;;;;;;32.17;4.25;;;;;;;;;;5119891;27;20035;-63
2024/01/03 07:38:44;;;;;;;33.85;3.90;;;;;;;;;;5119730;27;20073;-63
2024/01/03 07:41:11;;;;;;;21.77;4.25;;;;;;;;;;5117032;27;20047;-63
2024/01/03 07:43:37;;;;;;;23.45;3.83;;;;;;;;;;5118352;27;20054;-63
2024/01/03 07:46:03;;;;;;;27.20;4.75;;;;;;;;;;5115270;27;20051;-63
2024/01/03 07:48:29;;;;;;;29.52;4.65;;;;;;;;;;5098680;27;20131;-63
2024/01/03 07:50:55;;;;;;;26.42;4.60;;;;;;;;;;5113771;27;20159;-63
2024/01/03 07:53:22;;;;;;;38.70;4.22;;;;;;;;;;5120972;27;20062;-63
2024/01/03 07:55:48;;;;;;;27.23;4.97;;;;;;;;;;5118079;27;20141;-62
2024/01/03 07:58:14;;;;;;;31.70;4.95;;;;;;;;;;5099636;27;20055;-63
2024/01/03 08:00:40;;;;;;;23.88;4.05;;;;;;;;;;5097727;27;20047;-63
2024/01/03 08:03:06;;;;;;;35.25;4.43;;;;;;;;;;5118654;27;20127;-63
2024/01/03 08:05:33;;;;;;;25.92;4.50;;;;;;;;;;5116997;27;20190;-63
2024/01/03 08:07:59;;;;;;;26.23;4.15;;;;;;;;;;5097576;27;20071;-63
2024/01/03 08:10:25;;;;;;;27.10;4.47;;;;;;;;;;5098747;27;20055;-62
2024/01/03 08:12:51;;;;;;;28.08;5.28;;;;;;;;;;5098122;28;20497;-63
2024/01/03 08:15:17;;;;;;;24.65;4.38;;;;;;;;;;5115027;27;20047;-63
2024/01/03 08:17:43;;;;;;;21.73;3.80;;;;;;;;;;5117286;27;20456;-63
2024/01/03 08:20:10;;;;;;;20.25;2.70;;;;;;;;;;5115292;27;20064;-63
2024/01/03 08:22:36;;;;;;;13.20;2.58;;;;;;;;;;5101059;27;20047;-63
2024/01/03 08:25:02;;;;;;;17.05;3.22;;;;;;;;;;5096576;27;20083;-63
2024/01/03 08:27:29;;;;;;;20.02;3.83;;;;;;;;;;5097901;27;20036;-63
2024/01/03 08:29:55;;;;;;;18.45;3.47;;;;;;;;;;5092105;28;20063;-62
2024/01/03 08:32:25;;;;;;;18.88;3.55;;;;;;;;;;5090344;28;20055;-62
2024/01/03 08:34:52;;;;;;;20.90;3.22;;;;;;;;;;5096561;28;20036;-63
2024/01/03 08:37:18;;;;;;;22.98;3.78;;;;;;;;;;5096299;28;20047;-63
2024/01/03 08:39:44;;;;;;;25.48;3.70;;;;;;;;;;5091005;28;20108;-62
2024/01/03 08:42:10;;;;;;;21.40;4.10;;;;;;;;;;5098017;28;20036;-63
2024/01/03 08:44:36;;;;;;;28.95;4.72;;;;;;;;;;5097842;28;20140;-63
2024/01/03 08:47:03;;;;;;;23.50;3.78;;;;;;;;;;5096789;28;20047;-63
2024/01/03 08:49:29;;;;;;;28.50;6.18;;;;;;;;;;5097071;28;20096;-63
2024/01/03 08:51:56;;;;;;;28.00;4.72;;;;;;;;;;5098901;28;20083;-63
2024/01/03 08:54:24;;;;;;;25.52;4.03;;;;;;;;;;5097937;28;20114;-62
2024/01/03 08:56:50;;;;;;;34.58;5.53;;;;;;;;;;5090443;28;20453;-63
2024/01/03 08:59:17;;;;;;;27.23;4.65;;;;;;;;;;5093015;28;20043;-63
2024/01/03 09:01:43;;;;;;;29.20;3.92;;;;;;;;;;5098004;28;20047;-63
2024/01/03 09:04:10;;;;;;;27.15;4.38;;;;;;;;;;5096560;28;20144;-62
2024/01/03 09:06:38;;;;;;;26.20;4.90;;;;;;;;;;5095822;28;20101;-62
2024/01/03 09:09:04;;;;;;;30.30;4.30;;;;;;;;;;5095545;28;20112;-62
2024/01/03 09:11:30;;;;;;;38.60;5.75;;;;;;;;;;5094620;28;20047;-63
2024/01/03 09:13:57;;;;;;;34.60;5.25;;;;;;;;;;5087234;28;20043;-63
2024/01/03 09:16:24;;;;;;;30.33;4.03;;;;;;;;;;5093398;28;20047;-63
2024/01/03 09:18:50;;;;;;;22.10;4.00;;;;;;;;;;5093060;28;20047;-62
2024/01/03 09:21:16;;;;;;;37.65;6.30;;;;;;;;;;5090400;28;20109;-63
2024/01/03 09:23:43;;;;;;;36.45;6.53;;;;;;;;;;5100212;28;20135;-63
2024/01/03 09:26:10;;;;;;;35.55;6.40;;;;;;;;;;5095752;28;20036;-62
2024/01/03 09:28:38;;;;;;;26.10;4.72;;;;;;;;;;5089567;28;21800;-63
2024/01/03 09:31:05;;;;;;;22.77;4.38;;;;;;;;;;5096397;28;20126;-63
2024/01/03 09:33:31;;;;;;;32.72;5.05;;;;;;;;;;5099476;28;20054;-63
2024/01/03 09:35:57;;;;;;;25.50;3.80;;;;;;;;;;5099828;28;20036;-63
2024/01/03 09:38:23;;;;;;;26.33;4.95;;;;;;;;;;5096020;28;20111;-62
2024/01/03 09:40:50;;;;;;;21.77;4.22;;;;;;;;;;5098249;28;20088;-63
2024/01/03 09:43:16;;;;;;;20.35;3.50;;;;;;;;;;5100702;28;20112;-63
2024/01/03 09:45:43;;;;;;;28.80;3.45;;;;;;;;;;5099471;28;20071;-63
2024/01/03 09:48:09;;;;;;;19.80;5.03;;;;;;;;;;5100553;28;20475;-63
2024/01/03 09:50:36;;;;;;;22.23;4.25;;;;;;;;;;5098225;28;20043;-63
2024/01/03 09:53:04;;;;;;;24.23;5.25;;;;;;;;;;5099157;28;20062;-63
2024/01/03 09:55:30;;;;;;;30.40;3.97;;;;;;;;;;5097272;28;20154;-63
2024/01/03 09:57:57;;;;;;;25.88;3.63;;;;;;;;;;5115900;27;20183;-63
2024/01/03 10:00:29;;;;;;;25.33;3.92;;;;;;;;;;5119264;27;20077;-63
2024/01/03 10:03:00;;;;;;;22.80;3.72;;;;;;;;;;5104827;27;20056;-63
2024/01/03 10:05:26;;;;;;;36.88;4.18;;;;;;;;;;5120644;27;20035;-62
2024/01/03 10:07:52;;;;;;;23.20;3.97;;;;;;;;;;5120312;27;20114;-63
2024/01/03 10:10:36;;;;;;;17.42;2.90;;;;;;;;;;5101667;27;21573;-63
2024/01/03 10:13:19;;;;;;;22.38;3.17;;;;;;;;;;5122516;27;20435;-62
2024/01/03 10:15:46;;;;;;;25.85;4.45;;;;;;;;;;5101049;27;20317;-63
2024/01/03 10:18:15;;;;;;;22.88;4.18;;;;;;;;;;5121590;27;20766;-63
2024/01/03 10:20:42;;;;;;;14.23;2.58;;;;;;;;;;5106426;27;20135;-63
2024/01/03 10:23:15;;;;;;;19.55;4.00;;;;;;;;;;5126258;27;20043;-72
2024/01/03 10:25:41;;;;;;;;;;;;;;;;;;5108520;27;20118;-72
2024/01/03 10:28:09;;;;;;;16.63;3.13;;;;;;;;;;5102570;27;20272;-72
2024/01/03 10:30:36;;;;;;;28.00;4.03;;;;;;;;;;5122562;27;20055;-70
2024/01/03 10:33:03;;;;;;;25.90;3.67;;;;;;;;;;5124339;27;20478;-63
2024/01/03 10:35:29;;;;;;;26.85;3.30;;;;;;;;;;5117233;27;20039;-63
2024/01/03 10:37:57;;;;;;;18.33;3.08;;;;;;;;;;5106666;27;20050;-63
2024/01/03 10:40:25;;;;;;;28.77;3.20;;;;;;;;;;5106628;27;20104;-63
2024/01/03 10:42:52;;;;;;;27.35;3.42;;;;;;;;;;5117713;27;20124;-63
2024/01/03 10:45:18;;;;;;;23.00;4.43;;;;;;;;;;5117166;27;20159;-63
2024/01/03 10:47:45;;;;;;;23.00;3.53;;;;;;;;;;5103816;27;20501;-63
2024/01/03 10:50:11;;;;;;;26.15;3.97;;;;;;;;;;5100349;27;20046;-63
2024/01/03 10:52:38;;;;;;;29.38;4.88;;;;;;;;;;5123232;27;20126;-63
2024/01/03 10:55:06;;;;;;;22.67;3.90;;;;;;;;;;5104867;27;20100;-63
2024/01/03 10:57:35;;;;;;;22.75;3.42;;;;;;;;;;5119062;27;20047;-63
2024/01/03 11:00:12;;;;;;;27.45;4.55;;;;;;;;;;5119652;27;20047;-63
2024/01/03 11:02:42;;;;;;;23.60;4.13;;;;;;;;;;5100498;27;21212;-63
2024/01/03 11:05:14;;;;;;;30.90;5.32;;;;;;;;;;5100220;27;20405;-63
2024/01/03 11:07:44;;;;;;;26.48;4.22;;;;;;;;;;5103731;27;20114;-63
2024/01/03 11:10:10;;;;;;;22.75;4.25;;;;;;;;;;5117302;27;20037;-63
2024/01/03 11:12:37;;;;;;;21.67;3.47;;;;;;;;;;5099380;27;20093;-63
2024/01/03 11:15:23;;;;;;;26.45;4.72;;;;;;;;;;5119347;27;20492;-63
2024/01/03 11:17:50;;;;;;;23.15;3.95;;;;;;;;;;5118096;27;20076;-63
2024/01/03 11:20:27;;;;;;;28.83;4.68;;;;;;;;;;5079202;27;20059;-63
2024/01/03 11:22:55;;;;;;;21.90;4.35;;;;;;;;;;5118518;27;20054;-63
2024/01/03 11:25:40;;;;;;;19.63;3.42;;;;;;;;;;5120427;27;20133;-63
2024/01/03 11:28:25;;;;;;;23.88;3.53;;;;;;;;;;5099441;27;20046;-63
2024/01/03 11:31:10;;;;;;;23.73;3.33;;;;;;;;;;5119802;27;20101;-63
2024/01/03 11:33:43;;;;;;;18.85;3.45;;;;;;;;;;5120583;27;20112;-63
2024/01/03 11:36:09;;;;;;;22.55;3.95;;;;;;;;;;5111450;27;20031;-63
2024/01/03 11:38:40;;;;;;;22.50;3.20;;;;;;;;;;5104907;27;20063;-63
2024/01/03 11:41:06;;;;;;;29.20;3.60;;;;;;;;;;5118313;27;20066;-63
2024/01/03 11:43:32;;;;;;;20.92;4.65;;;;;;;;;;5117876;27;20071;-63
2024/01/03 11:46:07;;;;;;;25.83;4.10;;;;;;;;;;5116606;27;20627;-63
2024/01/03 11:48:33;;;;;;;15.90;2.60;;;;;;;;;;5119511;27;20039;-63
2024/01/03 11:50:59;;;;;;;17.63;2.60;;;;;;;;;;5102954;27;20075;-63
2024/01/03 11:53:26;;;;;;;28.70;4.20;;;;;;;;;;5124228;27;20104;-63
2024/01/03 11:55:52;;;;;;;21.45;3.70;;;;;;;;;;5119369;27;20036;-63
2024/01/03 11:58:18;;;;;;;22.30;3.72;;;;;;;;;;5099705;27;20047;-63
2024/01/03 12:00:45;;;;;;;16.85;3.60;;;;;;;;;;5099855;27;20055;-63
2024/01/03 12:03:11;;;;;;;15.75;3.08;;;;;;;;;;5125769;27;20099;-64
2024/01/03 12:05:44;;;;;;;19.95;3.75;;;;;;;;;;5105885;27;20068;-63
2024/01/03 12:08:10;;;;;;;16.00;2.92;;;;;;;;;;5120684;27;20066;-63
2024/01/03 12:10:37;;;;;;;12.45;3.22;;;;;;;;;;5121712;27;20097;-63
2024/01/03 12:13:03;;;;;;;20.33;3.38;;;;;;;;;;5122120;27;20042;-63
2024/01/03 12:15:30;;;;;;;19.02;3.20;;;;;;;;;;5100479;28;20199;-63
2024/01/03 12:18:06;;;;;;;21.00;3.25;;;;;;;;;;5124504;27;20125;-63
2024/01/03 12:20:33;;;;;;;20.13;3.67;;;;;;;;;;5123719;27;20043;-63
2024/01/03 12:23:07;;;;;;;21.33;3.15;;;;;;;;;;5100890;27;20054;-63
2024/01/03 12:25:34;;;;;;;20.23;3.42;;;;;;;;;;5121227;27;20035;-63
2024/01/03 12:28:01;;;;;;;16.15;3.17;;;;;;;;;;5123631;27;20097;-63
2024/01/03 12:30:27;;;;;;;16.52;2.13;;;;;;;;;;5108062;27;20124;-63
2024/01/03 12:33:06;;;;;;;15.63;3.22;;;;;;;;;;5122199;27;20077;-63
2024/01/03 12:35:33;;;;;;;20.17;2.92;;;;;;;;;;5103174;27;20151;-63
2024/01/03 12:37:59;;;;;;;21.60;3.28;;;;;;;;;;5105360;27;20126;-63
2024/01/03 12:40:25;;;;;;;19.95;3.05;;;;;;;;;;5099644;27;20042;-63
2024/01/03 12:42:51;;;;;;;22.95;3.80;;;;;;;;;;5119198;27;20054;-63
2024/01/03 12:45:18;;;;;;;23.27;2.78;;;;;;;;;;5103850;27;20211;-63
2024/01/03 12:47:44;;;;;;;18.35;3.13;;;;;;;;;;5119455;27;20123;-63
2024/01/03 12:50:10;;;;;;;18.02;2.97;;;;;;;;;;5118702;27;20039;-63
2024/01/03 12:52:36;;;;;;;16.35;2.88;;;;;;;;;;5098705;28;20081;-63
2024/01/03 12:55:03;;;;;;;16.58;3.83;;;;;;;;;;5101905;28;20055;-63
2024/01/03 12:57:30;;;;;;;12.63;2.55;;;;;;;;;;5100187;28;20470;-63
2024/01/03 12:59:56;;;;;;;12.25;2.03;;;;;;;;;;5119454;27;20040;-63
2024/01/03 13:02:22;;;;;;;15.60;2.25;;;;;;;;;;5118112;27;20035;-63
2024/01/03 13:04:49;;;;;;;14.68;2.00;;;;;;;;;;5118039;28;20047;-63
2024/01/03 13:07:15;;;;;;;12.07;3.08;;;;;;;;;;5102599;28;20750;-63
2024/01/03 13:09:42;;;;;;;18.98;3.30;;;;;;;;;;5118744;28;20035;-63
2024/01/03 13:12:08;;;;;;;17.30;3.45;;;;;;;;;;5114769;28;20439;-63
2024/01/03 13:14:34;;;;;;;14.73;3.88;;;;;;;;;;5091144;28;20075;-63
2024/01/03 13:17:01;;;;;;;23.75;4.90;;;;;;;;;;5095842;28;20607;-63
2024/01/03 13:19:27;;;;;;;23.15;3.90;;;;;;;;;;5118437;28;20107;-63
2024/01/03 13:21:53;;;;;;;18.35;3.25;;;;;;;;;;5104491;28;20059;-63
2024/01/03 13:24:19;;;;;;;19.40;3.72;;;;;;;;;;5095560;28;20035;-63
2024/01/03 13:26:47;;;;;;;18.92;3.03;;;;;;;;;;5095458;28;20103;-63
2024/01/03 13:29:13;;;;;;;23.00;3.20;;;;;;;;;;5117386;28;20037;-63
2024/01/03 13:31:40;;;;;;;19.10;3.60;;;;;;;;;;5098747;28;20067;-63
2024/01/03 13:34:06;;;;;;;22.58;3.90;;;;;;;;;;5118133;27;20126;-63
2024/01/03 13:36:32;;;;;;;25.35;3.95;;;;;;;;;;5102982;27;20031;-63
2024/01/03 13:38:58;;;;;;;21.10;3.95;;;;;;;;;;5100957;27;20121;-63
2024/01/03 13:41:24;;;;;;;31.75;5.10;;;;;;;;;;5103665;27;20040;-63
2024/01/03 13:43:52;;;;;;;19.00;3.30;;;;;;;;;;5100517;27;20050;-63
2024/01/03 13:46:18;;;;;;;23.65;5.07;;;;;;;;;;5098269;27;20051;-63
2024/01/03 13:48:44;;;;;;;19.50;3.80;;;;;;;;;;5100460;27;20496;-63
2024/01/03 13:51:10;;;;;;;19.50;2.90;;;;;;;;;;5104407;27;20053;-63
2024/01/03 13:53:36;;;;;;;17.30;2.95;;;;;;;;;;5103406;27;20184;-63
2024/01/03 13:56:04;;;;;;;21.33;4.40;;;;;;;;;;5106794;27;20042;-63
2024/01/03 13:58:30;;;;;;;17.45;2.95;;;;;;;;;;5127412;27;20138;-63
2024/01/03 14:00:56;;;;;;;20.65;3.30;;;;;;;;;;5107051;27;20155;-63
2024/01/03 14:03:23;;;;;;;18.95;4.00;;;;;;;;;;5108034;27;20069;-63
2024/01/03 14:05:49;;;;;;;20.60;3.65;;;;;;;;;;5106630;27;20047;-66
2024/01/03 14:08:15;;;;;;;20.63;4.20;;;;;;;;;;5105177;27;20059;-69
2024/01/03 14:10:42;;;;;;;17.10;3.00;;;;;;;;;;5125597;27;20432;-64
2024/01/03 14:13:08;;;;;;;25.63;3.55;;;;;;;;;;5124420;27;20107;-65
2024/01/03 14:15:34;;;;;;;21.95;3.83;;;;;;;;;;5121640;27;20350;-64
2024/01/03 14:18:00;;;;;;;18.88;3.10;;;;;;;;;;5128036;27;20043;-64
2024/01/03 14:20:28;;;;;;;19.85;5.03;;;;;;;;;;5108042;27;20080;-65
2024/01/03 14:22:54;;;;;;;18.05;3.47;;;;;;;;;;5080253;27;20044;-65
2024/01/03 14:25:21;;;;;;;14.68;3.50;;;;;;;;;;5108008;27;20031;-65
2024/01/03 14:27:52;;;;;;;14.63;2.42;;;;;;;;;;5126325;27;20054;-65
2024/01/03 14:30:19;;;;;;;30.88;3.40;;;;;;;;;;5103157;28;20090;-65